Portada
METAR-TAF:

METAR-TAF

Aeroports :

Alice Springs, Austràlia

latitud: 23-48S, longitud: 133-53E, altitud: 545 m

Observació

L'informe es va fer fa 17 minuts, a les 10:30 UTC
Vent 4 kt del Nord-Est
Temperatura 14°C
Humitat 24%
Pressió 1016 hPa
Visibilitat 10 km o més

METAR: YBAS 161030Z AUTO 04004KT 9999 // NCD 14/M06 Q1016 RF00.0/000.0

Hora: 20:17 (10:47 UTC)

Pronòstic

L'informe es va fer fa 5 hores i 24 minuts, a les 05:23 UTC
Pronòstic vàlid del 16 a les 06 UTC al 17 a les 06 UTC
Vent 7 kt del Sud/Sud-Oest
Visibilitat 10 km o més
sense núvols per sota de 1500 mi sense presència de cumulonimbus.
A partir de les 16 a les 0900 UTC
Vent 5 kt del Est
Visibilitat 10 km o més
sense núvols per sota de 1500 mi sense presència de cumulonimbus.
A partir de les 16 a les 1500 UTC
Vent 5 kt del Nord-Oest
Visibilitat 10 km o més
sense núvols per sota de 1500 mi sense presència de cumulonimbus.

TAF: YBAS 160523Z 1606/1706 20007KT CAVOK FM160900 09005KT CAVOK FM161500 31005KT CAVOK

Observacions i pronòstics meteorològics de més de 4000 aeroports (METAR i TAF).

Les estacions disponibles són els punts grocs i vermells al mapa.

Posi el ratolí al punt desitjat per veure el nom de l'estació.

Feu clic per veure les observacions i els pronòstics meteorològics.

Per canviar el mapa: feu clic els botons verds amb una creu de color negre per apropar; al botó verd amb un guió per allunyar la imatge; o en les fletxes verdes per a mapes adjacents.


METAR-TAF: